sensor_id;sensor_type;location;lat;lon;timestamp;P1;durP1;ratioP1;P2;durP2;ratioP2
10588;SDS011;5342;55.676;13.346;2022-11-20T00:00:04;2.63;;;1.30;;
10588;SDS011;5342;55.676;13.346;2022-11-20T00:02:31;1.07;;;0.97;;
10588;SDS011;5342;55.676;13.346;2022-11-20T00:04:57;1.70;;;1.30;;
10588;SDS011;5342;55.676;13.346;2022-11-20T00:07:24;1.40;;;1.30;;
10588;SDS011;5342;55.676;13.346;2022-11-20T00:09:50;1.50;;;1.40;;
10588;SDS011;5342;55.676;13.346;2022-11-20T00:12:17;1.70;;;1.30;;
10588;SDS011;5342;55.676;13.346;2022-11-20T00:14:43;1.40;;;1.30;;
10588;SDS011;5342;55.676;13.346;2022-11-20T00:17:11;1.90;;;1.63;;
10588;SDS011;5342;55.676;13.346;2022-11-20T00:19:37;1.60;;;1.50;;
10588;SDS011;5342;55.676;13.346;2022-11-20T00:22:04;1.90;;;1.80;;
10588;SDS011;5342;55.676;13.346;2022-11-20T00:24:30;2.13;;;1.93;;
10588;SDS011;5342;55.676;13.346;2022-11-20T00:26:57;2.47;;;2.20;;
10588;SDS011;5342;55.676;13.346;2022-11-20T00:29:23;2.53;;;2.10;;
10588;SDS011;5342;55.676;13.346;2022-11-20T00:31:50;2.90;;;2.43;;
10588;SDS011;5342;55.676;13.346;2022-11-20T00:34:16;2.50;;;2.30;;
10588;SDS011;5342;55.676;13.346;2022-11-20T00:36:43;2.80;;;2.07;;
10588;SDS011;5342;55.676;13.346;2022-11-20T00:39:09;2.60;;;2.07;;
10588;SDS011;5342;55.676;13.346;2022-11-20T00:41:36;2.63;;;2.23;;
10588;SDS011;5342;55.676;13.346;2022-11-20T00:44:02;2.47;;;2.27;;
10588;SDS011;5342;55.676;13.346;2022-11-20T00:46:29;2.50;;;2.17;;
10588;SDS011;5342;55.676;13.346;2022-11-20T00:48:56;2.77;;;2.43;;
10588;SDS011;5342;55.676;13.346;2022-11-20T00:51:23;3.90;;;2.30;;
10588;SDS011;5342;55.676;13.346;2022-11-20T00:53:50;2.57;;;2.30;;
10588;SDS011;5342;55.676;13.346;2022-11-20T00:56:17;2.27;;;2.07;;
10588;SDS011;5342;55.676;13.346;2022-11-20T00:58:45;2.40;;;2.20;;
10588;SDS011;5342;55.676;13.346;2022-11-20T01:01:13;2.20;;;2.00;;
10588;SDS011;5342;55.676;13.346;2022-11-20T01:03:42;2.40;;;2.17;;
10588;SDS011;5342;55.676;13.346;2022-11-20T01:08:38;2.30;;;2.10;;
10588;SDS011;5342;55.676;13.346;2022-11-20T01:11:06;2.27;;;2.07;;
10588;SDS011;5342;55.676;13.346;2022-11-20T01:13:32;2.63;;;2.43;;
10588;SDS011;5342;55.676;13.346;2022-11-20T01:16:12;2.43;;;2.13;;
10588;SDS011;5342;55.676;13.346;2022-11-20T01:18:40;2.47;;;2.23;;
10588;SDS011;5342;55.676;13.346;2022-11-20T01:21:08;2.40;;;2.20;;
10588;SDS011;5342;55.676;13.346;2022-11-20T01:23:35;2.83;;;2.50;;
10588;SDS011;5342;55.676;13.346;2022-11-20T01:26:04;2.43;;;2.23;;
10588;SDS011;5342;55.676;13.346;2022-11-20T01:28:32;2.40;;;2.20;;
10588;SDS011;5342;55.676;13.346;2022-11-20T01:30:58;3.47;;;2.20;;
10588;SDS011;5342;55.676;13.346;2022-11-20T01:33:25;2.30;;;2.10;;
10588;SDS011;5342;55.676;13.346;2022-11-20T01:35:52;3.10;;;2.10;;
10588;SDS011;5342;55.676;13.346;2022-11-20T01:38:19;2.10;;;1.90;;
10588;SDS011;5342;55.676;13.346;2022-11-20T01:40:53;2.20;;;2.00;;
10588;SDS011;5342;55.676;13.346;2022-11-20T01:43:19;2.10;;;1.90;;
10588;SDS011;5342;55.676;13.346;2022-11-20T01:45:50;2.43;;;1.93;;
10588;SDS011;5342;55.676;13.346;2022-11-20T01:48:18;2.93;;;2.00;;
10588;SDS011;5342;55.676;13.346;2022-11-20T01:50:45;2.40;;;2.13;;
10588;SDS011;5342;55.676;13.346;2022-11-20T01:53:13;2.20;;;1.90;;
10588;SDS011;5342;55.676;13.346;2022-11-20T01:55:51;1.93;;;1.83;;
10588;SDS011;5342;55.676;13.346;2022-11-20T01:58:19;2.53;;;2.27;;
10588;SDS011;5342;55.676;13.346;2022-11-20T02:00:46;2.27;;;2.00;;
10588;SDS011;5342;55.676;13.346;2022-11-20T02:03:14;2.07;;;1.97;;
10588;SDS011;5342;55.676;13.346;2022-11-20T02:06:27;2.20;;;2.00;;
10588;SDS011;5342;55.676;13.346;2022-11-20T02:08:28;2.40;;;1.73;;
10588;SDS011;5342;55.676;13.346;2022-11-20T02:10:55;2.27;;;1.87;;
10588;SDS011;5342;55.676;13.346;2022-11-20T02:13:22;3.50;;;2.37;;
10588;SDS011;5342;55.676;13.346;2022-11-20T02:16:23;2.17;;;1.90;;
10588;SDS011;5342;55.676;13.346;2022-11-20T02:18:51;2.20;;;1.93;;
10588;SDS011;5342;55.676;13.346;2022-11-20T02:21:37;3.40;;;2.57;;
10588;SDS011;5342;55.676;13.346;2022-11-20T02:26:41;2.00;;;1.90;;
10588;SDS011;5342;55.676;13.346;2022-11-20T02:29:09;2.53;;;2.13;;
10588;SDS011;5342;55.676;13.346;2022-11-20T02:31:40;2.60;;;1.90;;
10588;SDS011;5342;55.676;13.346;2022-11-20T02:34:07;2.70;;;2.00;;
10588;SDS011;5342;55.676;13.346;2022-11-20T02:36:34;2.03;;;1.83;;
10588;SDS011;5342;55.676;13.346;2022-11-20T02:39:02;3.27;;;2.00;;
10588;SDS011;5342;55.676;13.346;2022-11-20T02:41:33;2.23;;;2.00;;
10588;SDS011;5342;55.676;13.346;2022-11-20T02:44:00;2.27;;;2.00;;
10588;SDS011;5342;55.676;13.346;2022-11-20T02:46:27;2.20;;;2.00;;
10588;SDS011;5342;55.676;13.346;2022-11-20T02:48:53;2.13;;;1.93;;
10588;SDS011;5342;55.676;13.346;2022-11-20T02:51:20;2.43;;;2.17;;
10588;SDS011;5342;55.676;13.346;2022-11-20T02:53:46;2.93;;;2.10;;
10588;SDS011;5342;55.676;13.346;2022-11-20T02:56:13;1.83;;;1.70;;
10588;SDS011;5342;55.676;13.346;2022-11-20T02:58:39;2.30;;;2.10;;
10588;SDS011;5342;55.676;13.346;2022-11-20T03:01:06;2.03;;;1.83;;
10588;SDS011;5342;55.676;13.346;2022-11-20T03:03:33;3.23;;;2.70;;
10588;SDS011;5342;55.676;13.346;2022-11-20T03:05:59;2.33;;;2.13;;
10588;SDS011;5342;55.676;13.346;2022-11-20T03:08:26;2.00;;;1.90;;
10588;SDS011;5342;55.676;13.346;2022-11-20T03:10:52;2.30;;;1.67;;
10588;SDS011;5342;55.676;13.346;2022-11-20T03:13:19;2.57;;;2.37;;
10588;SDS011;5342;55.676;13.346;2022-11-20T03:15:45;2.40;;;2.20;;
10588;SDS011;5342;55.676;13.346;2022-11-20T03:18:12;2.07;;;1.97;;
10588;SDS011;5342;55.676;13.346;2022-11-20T03:20:39;2.33;;;2.13;;
10588;SDS011;5342;55.676;13.346;2022-11-20T03:23:05;2.57;;;2.37;;
10588;SDS011;5342;55.676;13.346;2022-11-20T03:25:32;1.97;;;1.80;;
10588;SDS011;5342;55.676;13.346;2022-11-20T03:27:58;2.45;;;2.17;;
10588;SDS011;5342;55.676;13.346;2022-11-20T03:30:25;2.28;;;2.08;;
10588;SDS011;5342;55.676;13.346;2022-11-20T03:32:52;2.53;;;2.33;;
10588;SDS011;5342;55.676;13.346;2022-11-20T03:35:19;2.28;;;2.08;;
10588;SDS011;5342;55.676;13.346;2022-11-20T03:37:46;2.50;;;2.30;;
10588;SDS011;5342;55.676;13.346;2022-11-20T03:40:12;2.25;;;2.00;;
10588;SDS011;5342;55.676;13.346;2022-11-20T03:42:39;2.20;;;2.00;;
10588;SDS011;5342;55.676;13.346;2022-11-20T03:45:12;2.30;;;2.10;;
10588;SDS011;5342;55.676;13.346;2022-11-20T03:47:39;3.55;;;2.40;;
10588;SDS011;5342;55.676;13.346;2022-11-20T03:50:06;2.90;;;2.60;;
10588;SDS011;5342;55.676;13.346;2022-11-20T03:52:33;2.53;;;2.33;;
10588;SDS011;5342;55.676;13.346;2022-11-20T03:54:59;3.27;;;2.30;;
10588;SDS011;5342;55.676;13.346;2022-11-20T03:57:26;2.78;;;2.45;;
10588;SDS011;5342;55.676;13.346;2022-11-20T03:59:53;2.78;;;2.17;;
10588;SDS011;5342;55.676;13.346;2022-11-20T04:02:19;2.70;;;2.50;;
10588;SDS011;5342;55.676;13.346;2022-11-20T04:04:46;2.25;;;2.03;;
10588;SDS011;5342;55.676;13.346;2022-11-20T04:07:12;2.40;;;2.20;;
10588;SDS011;5342;55.676;13.346;2022-11-20T04:09:39;2.55;;;2.35;;
10588;SDS011;5342;55.676;13.346;2022-11-20T04:12:05;2.60;;;2.40;;
10588;SDS011;5342;55.676;13.346;2022-11-20T04:14:32;2.63;;;2.10;;
10588;SDS011;5342;55.676;13.346;2022-11-20T04:16:58;3.05;;;2.22;;
10588;SDS011;5342;55.676;13.346;2022-11-20T04:19:25;2.97;;;2.67;;
10588;SDS011;5342;55.676;13.346;2022-11-20T04:21:51;2.90;;;2.30;;
10588;SDS011;5342;55.676;13.346;2022-11-20T04:24:19;2.30;;;2.10;;
10588;SDS011;5342;55.676;13.346;2022-11-20T04:26:45;3.35;;;2.42;;
10588;SDS011;5342;55.676;13.346;2022-11-20T04:29:12;2.33;;;2.13;;
10588;SDS011;5342;55.676;13.346;2022-11-20T04:31:38;4.00;;;2.33;;
10588;SDS011;5342;55.676;13.346;2022-11-20T04:34:05;2.30;;;2.10;;
10588;SDS011;5342;55.676;13.346;2022-11-20T04:36:32;2.38;;;2.10;;
10588;SDS011;5342;55.676;13.346;2022-11-20T04:39:00;2.15;;;1.95;;
10588;SDS011;5342;55.676;13.346;2022-11-20T04:41:28;2.58;;;2.17;;
10588;SDS011;5342;55.676;13.346;2022-11-20T04:43:56;2.65;;;2.22;;
10588;SDS011;5342;55.676;13.346;2022-11-20T04:46:25;2.90;;;2.60;;
10588;SDS011;5342;55.676;13.346;2022-11-20T04:48:52;2.47;;;2.28;;
10588;SDS011;5342;55.676;13.346;2022-11-20T04:51:19;2.08;;;1.77;;
10588;SDS011;5342;55.676;13.346;2022-11-20T04:53:45;2.10;;;1.90;;
10588;SDS011;5342;55.676;13.346;2022-11-20T04:56:12;2.83;;;2.15;;
10588;SDS011;5342;55.676;13.346;2022-11-20T04:58:39;2.42;;;2.13;;
10588;SDS011;5342;55.676;13.346;2022-11-20T05:01:10;4.22;;;2.05;;
10588;SDS011;5342;55.676;13.346;2022-11-20T05:03:38;2.13;;;1.85;;
10588;SDS011;5342;55.676;13.346;2022-11-20T05:06:05;5.07;;;2.45;;
10588;SDS011;5342;55.676;13.346;2022-11-20T05:08:32;2.40;;;2.20;;
10588;SDS011;5342;55.676;13.346;2022-11-20T05:11:11;3.38;;;2.13;;
10588;SDS011;5342;55.676;13.346;2022-11-20T05:13:39;2.40;;;2.10;;
10588;SDS011;5342;55.676;13.346;2022-11-20T05:16:06;2.00;;;1.90;;
10588;SDS011;5342;55.676;13.346;2022-11-20T05:18:34;1.90;;;1.80;;
10588;SDS011;5342;55.676;13.346;2022-11-20T05:21:01;2.85;;;2.00;;
10588;SDS011;5342;55.676;13.346;2022-11-20T05:23:28;2.40;;;2.20;;
10588;SDS011;5342;55.676;13.346;2022-11-20T05:25:55;3.60;;;2.40;;
10588;SDS011;5342;55.676;13.346;2022-11-20T05:28:22;2.55;;;2.30;;
10588;SDS011;5342;55.676;13.346;2022-11-20T05:30:49;3.15;;;2.25;;
10588;SDS011;5342;55.676;13.346;2022-11-20T05:33:16;2.47;;;2.00;;
10588;SDS011;5342;55.676;13.346;2022-11-20T05:35:42;2.95;;;2.67;;
10588;SDS011;5342;55.676;13.346;2022-11-20T05:38:09;2.45;;;1.88;;
10588;SDS011;5342;55.676;13.346;2022-11-20T05:40:35;3.35;;;2.45;;
10588;SDS011;5342;55.676;13.346;2022-11-20T05:43:02;2.35;;;1.85;;
10588;SDS011;5342;55.676;13.346;2022-11-20T05:45:29;2.22;;;2.03;;
10588;SDS011;5342;55.676;13.346;2022-11-20T05:47:58;2.60;;;2.25;;
10588;SDS011;5342;55.676;13.346;2022-11-20T05:50:26;2.75;;;1.98;;
10588;SDS011;5342;55.676;13.346;2022-11-20T05:52:53;2.25;;;1.95;;
10588;SDS011;5342;55.676;13.346;2022-11-20T05:55:19;2.63;;;2.40;;
10588;SDS011;5342;55.676;13.346;2022-11-20T05:57:46;2.67;;;2.47;;
10588;SDS011;5342;55.676;13.346;2022-11-20T06:00:12;2.30;;;2.10;;
10588;SDS011;5342;55.676;13.346;2022-11-20T06:02:39;2.45;;;2.25;;
10588;SDS011;5342;55.676;13.346;2022-11-20T06:05:06;2.65;;;2.08;;
10588;SDS011;5342;55.676;13.346;2022-11-20T06:07:32;2.58;;;2.20;;
10588;SDS011;5342;55.676;13.346;2022-11-20T06:09:59;2.95;;;2.05;;
10588;SDS011;5342;55.676;13.346;2022-11-20T06:12:25;2.88;;;2.30;;
10588;SDS011;5342;55.676;13.346;2022-11-20T06:14:52;2.58;;;2.08;;
10588;SDS011;5342;55.676;13.346;2022-11-20T06:17:18;2.40;;;2.20;;
10588;SDS011;5342;55.676;13.346;2022-11-20T06:19:45;3.33;;;2.30;;
10588;SDS011;5342;55.676;13.346;2022-11-20T06:22:11;4.60;;;2.65;;
10588;SDS011;5342;55.676;13.346;2022-11-20T06:24:38;2.42;;;2.10;;
10588;SDS011;5342;55.676;13.346;2022-11-20T06:27:05;2.40;;;2.20;;
10588;SDS011;5342;55.676;13.346;2022-11-20T06:29:31;2.20;;;1.90;;
10588;SDS011;5342;55.676;13.346;2022-11-20T06:31:58;2.55;;;2.20;;
10588;SDS011;5342;55.676;13.346;2022-11-20T06:34:24;2.72;;;2.47;;
10588;SDS011;5342;55.676;13.346;2022-11-20T06:36:51;2.78;;;2.47;;
10588;SDS011;5342;55.676;13.346;2022-11-20T06:39:17;3.10;;;2.20;;
10588;SDS011;5342;55.676;13.346;2022-11-20T06:41:44;2.42;;;2.22;;
10588;SDS011;5342;55.676;13.346;2022-11-20T06:44:10;3.22;;;2.45;;
10588;SDS011;5342;55.676;13.346;2022-11-20T06:46:37;2.50;;;2.30;;
10588;SDS011;5342;55.676;13.346;2022-11-20T06:49:03;2.85;;;2.47;;
10588;SDS011;5342;55.676;13.346;2022-11-20T06:51:30;2.30;;;2.10;;
10588;SDS011;5342;55.676;13.346;2022-11-20T06:53:56;3.83;;;3.20;;
10588;SDS011;5342;55.676;13.346;2022-11-20T06:56:23;2.90;;;2.60;;
10588;SDS011;5342;55.676;13.346;2022-11-20T06:58:50;2.60;;;2.40;;
10588;SDS011;5342;55.676;13.346;2022-11-20T07:01:16;2.85;;;2.10;;
10588;SDS011;5342;55.676;13.346;2022-11-20T07:03:43;3.55;;;2.35;;
10588;SDS011;5342;55.676;13.346;2022-11-20T07:06:09;2.42;;;2.22;;
10588;SDS011;5342;55.676;13.346;2022-11-20T07:08:36;2.50;;;2.10;;
10588;SDS011;5342;55.676;13.346;2022-11-20T07:11:04;2.50;;;2.30;;
10588;SDS011;5342;55.676;13.346;2022-11-20T07:13:31;3.17;;;2.60;;
10588;SDS011;5342;55.676;13.346;2022-11-20T07:16:01;2.63;;;2.42;;
10588;SDS011;5342;55.676;13.346;2022-11-20T07:18:28;3.17;;;2.15;;
10588;SDS011;5342;55.676;13.346;2022-11-20T07:20:55;3.28;;;2.50;;
10588;SDS011;5342;55.676;13.346;2022-11-20T07:23:21;2.78;;;2.47;;
10588;SDS011;5342;55.676;13.346;2022-11-20T07:25:48;2.67;;;2.15;;
10588;SDS011;5342;55.676;13.346;2022-11-20T07:28:14;3.15;;;2.75;;
10588;SDS011;5342;55.676;13.346;2022-11-20T07:30:41;2.67;;;2.45;;
10588;SDS011;5342;55.676;13.346;2022-11-20T07:33:07;2.70;;;2.50;;
10588;SDS011;5342;55.676;13.346;2022-11-20T07:35:34;2.70;;;2.45;;
10588;SDS011;5342;55.676;13.346;2022-11-20T07:38:01;2.72;;;2.30;;
10588;SDS011;5342;55.676;13.346;2022-11-20T07:40:27;3.35;;;2.50;;
10588;SDS011;5342;55.676;13.346;2022-11-20T07:42:54;2.97;;;2.70;;
10588;SDS011;5342;55.676;13.346;2022-11-20T07:45:22;3.10;;;2.58;;
10588;SDS011;5342;55.676;13.346;2022-11-20T07:47:49;3.55;;;2.42;;
10588;SDS011;5342;55.676;13.346;2022-11-20T07:50:16;2.33;;;2.10;;
10588;SDS011;5342;55.676;13.346;2022-11-20T07:52:43;3.90;;;2.60;;
10588;SDS011;5342;55.676;13.346;2022-11-20T07:55:09;4.85;;;2.35;;
10588;SDS011;5342;55.676;13.346;2022-11-20T07:57:36;3.00;;;2.65;;
10588;SDS011;5342;55.676;13.346;2022-11-20T08:00:03;3.42;;;2.50;;
10588;SDS011;5342;55.676;13.346;2022-11-20T08:02:30;3.97;;;2.10;;
10588;SDS011;5342;55.676;13.346;2022-11-20T08:04:57;4.07;;;3.00;;
10588;SDS011;5342;55.676;13.346;2022-11-20T08:07:23;3.22;;;2.47;;
10588;SDS011;5342;55.676;13.346;2022-11-20T08:09:50;4.20;;;3.40;;
10588;SDS011;5342;55.676;13.346;2022-11-20T08:12:18;3.20;;;2.50;;
10588;SDS011;5342;55.676;13.346;2022-11-20T08:15:04;3.47;;;2.65;;
10588;SDS011;5342;55.676;13.346;2022-11-20T08:17:30;3.45;;;2.70;;
10588;SDS011;5342;55.676;13.346;2022-11-20T08:19:57;3.08;;;2.50;;
10588;SDS011;5342;55.676;13.346;2022-11-20T08:22:24;3.30;;;2.70;;
10588;SDS011;5342;55.676;13.346;2022-11-20T08:24:50;3.17;;;2.88;;
10588;SDS011;5342;55.676;13.346;2022-11-20T08:27:17;3.28;;;2.80;;
10588;SDS011;5342;55.676;13.346;2022-11-20T08:29:44;4.57;;;3.75;;
10588;SDS011;5342;55.676;13.346;2022-11-20T08:32:10;5.03;;;3.45;;
10588;SDS011;5342;55.676;13.346;2022-11-20T08:34:37;3.50;;;2.78;;
10588;SDS011;5342;55.676;13.346;2022-11-20T08:37:03;2.95;;;2.50;;
10588;SDS011;5342;55.676;13.346;2022-11-20T08:39:30;2.97;;;2.67;;
10588;SDS011;5342;55.676;13.346;2022-11-20T08:41:56;3.05;;;2.75;;
10588;SDS011;5342;55.676;13.346;2022-11-20T08:44:23;3.10;;;2.80;;
10588;SDS011;5342;55.676;13.346;2022-11-20T08:46:49;3.30;;;2.92;;
10588;SDS011;5342;55.676;13.346;2022-11-20T08:49:16;3.23;;;2.80;;
10588;SDS011;5342;55.676;13.346;2022-11-20T08:51:43;2.85;;;2.55;;
10588;SDS011;5342;55.676;13.346;2022-11-20T08:54:10;2.83;;;2.63;;
10588;SDS011;5342;55.676;13.346;2022-11-20T08:56:37;3.53;;;2.90;;
10588;SDS011;5342;55.676;13.346;2022-11-20T08:59:03;3.17;;;2.80;;
10588;SDS011;5342;55.676;13.346;2022-11-20T09:01:30;3.35;;;2.70;;
10588;SDS011;5342;55.676;13.346;2022-11-20T09:03:56;3.25;;;2.80;;
10588;SDS011;5342;55.676;13.346;2022-11-20T09:06:23;3.50;;;2.75;;
10588;SDS011;5342;55.676;13.346;2022-11-20T09:08:52;3.50;;;3.00;;
10588;SDS011;5342;55.676;13.346;2022-11-20T09:11:19;3.83;;;3.20;;
10588;SDS011;5342;55.676;13.346;2022-11-20T09:13:46;3.13;;;2.83;;
10588;SDS011;5342;55.676;13.346;2022-11-20T09:16:12;3.65;;;2.90;;
10588;SDS011;5342;55.676;13.346;2022-11-20T09:18:39;3.35;;;2.78;;
10588;SDS011;5342;55.676;13.346;2022-11-20T09:21:08;3.25;;;2.78;;
10588;SDS011;5342;55.676;13.346;2022-11-20T09:23:38;3.70;;;3.00;;
10588;SDS011;5342;55.676;13.346;2022-11-20T09:26:06;3.33;;;2.75;;
10588;SDS011;5342;55.676;13.346;2022-11-20T09:28:33;3.10;;;2.80;;
10588;SDS011;5342;55.676;13.346;2022-11-20T09:30:59;3.60;;;2.37;;
10588;SDS011;5342;55.676;13.346;2022-11-20T09:33:26;3.63;;;2.97;;
10588;SDS011;5342;55.676;13.346;2022-11-20T09:35:52;2.70;;;2.50;;
10588;SDS011;5342;55.676;13.346;2022-11-20T09:38:19;2.70;;;2.50;;
10588;SDS011;5342;55.676;13.346;2022-11-20T09:40:54;3.37;;;3.07;;
10588;SDS011;5342;55.676;13.346;2022-11-20T09:46:04;3.30;;;2.90;;
10588;SDS011;5342;55.676;13.346;2022-11-20T09:48:37;3.47;;;3.00;;
10588;SDS011;5342;55.676;13.346;2022-11-20T09:51:30;3.70;;;3.33;;
10588;SDS011;5342;55.676;13.346;2022-11-20T09:54:13;3.67;;;3.17;;
10588;SDS011;5342;55.676;13.346;2022-11-20T09:56:42;3.43;;;3.00;;
10588;SDS011;5342;55.676;13.346;2022-11-20T09:59:31;3.77;;;3.00;;
10588;SDS011;5342;55.676;13.346;2022-11-20T10:01:59;3.63;;;2.80;;
10588;SDS011;5342;55.676;13.346;2022-11-20T10:04:26;4.37;;;3.63;;
10588;SDS011;5342;55.676;13.346;2022-11-20T10:07:05;3.30;;;2.93;;
10588;SDS011;5342;55.676;13.346;2022-11-20T10:09:37;3.40;;;3.10;;
10588;SDS011;5342;55.676;13.346;2022-11-20T10:12:19;4.03;;;3.00;;
10588;SDS011;5342;55.676;13.346;2022-11-20T10:27:43;3.60;;;3.30;;
10588;SDS011;5342;55.676;13.346;2022-11-20T10:30:15;3.53;;;3.00;;
10588;SDS011;5342;55.676;13.346;2022-11-20T10:32:43;3.87;;;2.90;;
10588;SDS011;5342;55.676;13.346;2022-11-20T10:37:42;2.37;;;2.17;;
10588;SDS011;5342;55.676;13.346;2022-11-20T10:42:57;2.90;;;2.60;;
10588;SDS011;5342;55.676;13.346;2022-11-20T10:48:05;2.47;;;2.27;;
10588;SDS011;5342;55.676;13.346;2022-11-20T10:50:34;2.50;;;2.30;;
10588;SDS011;5342;55.676;13.346;2022-11-20T10:56:16;3.83;;;2.53;;
10588;SDS011;5342;55.676;13.346;2022-11-20T11:00:51;2.37;;;2.03;;
10588;SDS011;5342;55.676;13.346;2022-11-20T11:08:34;3.00;;;2.70;;
10588;SDS011;5342;55.676;13.346;2022-11-20T11:11:02;3.27;;;2.63;;
10588;SDS011;5342;55.676;13.346;2022-11-20T11:13:31;3.00;;;2.20;;
10588;SDS011;5342;55.676;13.346;2022-11-20T11:15:58;2.90;;;2.57;;
10588;SDS011;5342;55.676;13.346;2022-11-20T11:18:29;2.47;;;2.27;;
10588;SDS011;5342;55.676;13.346;2022-11-20T11:20:56;4.23;;;2.53;;
10588;SDS011;5342;55.676;13.346;2022-11-20T11:23:34;2.70;;;2.50;;
10588;SDS011;5342;55.676;13.346;2022-11-20T11:26:02;3.00;;;2.70;;
10588;SDS011;5342;55.676;13.346;2022-11-20T11:28:30;3.07;;;2.20;;
10588;SDS011;5342;55.676;13.346;2022-11-20T11:30:57;3.00;;;2.63;;
10588;SDS011;5342;55.676;13.346;2022-11-20T11:33:24;3.70;;;2.73;;
10588;SDS011;5342;55.676;13.346;2022-11-20T11:35:52;3.70;;;2.40;;
10588;SDS011;5342;55.676;13.346;2022-11-20T11:38:21;2.60;;;2.40;;
10588;SDS011;5342;55.676;13.346;2022-11-20T11:40:48;2.80;;;2.60;;
10588;SDS011;5342;55.676;13.346;2022-11-20T11:43:19;3.27;;;2.30;;
10588;SDS011;5342;55.676;13.346;2022-11-20T11:54:21;4.63;;;2.80;;
10588;SDS011;5342;55.676;13.346;2022-11-20T11:56:49;3.17;;;2.30;;
10588;SDS011;5342;55.676;13.346;2022-11-20T11:59:25;2.80;;;2.60;;
10588;SDS011;5342;55.676;13.346;2022-11-20T12:01:55;2.60;;;2.40;;
10588;SDS011;5342;55.676;13.346;2022-11-20T12:04:30;3.20;;;2.90;;
10588;SDS011;5342;55.676;13.346;2022-11-20T12:07:06;2.70;;;2.50;;
10588;SDS011;5342;55.676;13.346;2022-11-20T12:09:41;2.60;;;2.40;;
10588;SDS011;5342;55.676;13.346;2022-11-20T12:12:17;3.33;;;3.03;;
10588;SDS011;5342;55.676;13.346;2022-11-20T12:14:46;2.67;;;2.47;;
10588;SDS011;5342;55.676;13.346;2022-11-20T12:17:13;3.50;;;3.20;;
10588;SDS011;5342;55.676;13.346;2022-11-20T12:19:40;3.27;;;2.97;;
10588;SDS011;5342;55.676;13.346;2022-11-20T12:32:36;3.00;;;2.67;;
10588;SDS011;5342;55.676;13.346;2022-11-20T12:42:59;2.77;;;2.37;;
10588;SDS011;5342;55.676;13.346;2022-11-20T12:45:50;2.50;;;2.30;;
10588;SDS011;5342;55.676;13.346;2022-11-20T13:02:05;2.57;;;2.37;;
10588;SDS011;5342;55.676;13.346;2022-11-20T13:07:09;2.87;;;2.63;;
10588;SDS011;5342;55.676;13.346;2022-11-20T13:09:38;3.30;;;2.60;;
10588;SDS011;5342;55.676;13.346;2022-11-20T13:14:44;2.30;;;2.10;;
10588;SDS011;5342;55.676;13.346;2022-11-20T13:19:41;2.57;;;2.30;;
10588;SDS011;5342;55.676;13.346;2022-11-20T13:22:08;2.90;;;2.50;;
10588;SDS011;5342;55.676;13.346;2022-11-20T13:24:35;2.77;;;2.50;;
10588;SDS011;5342;55.676;13.346;2022-11-20T13:27:03;2.70;;;2.40;;
10588;SDS011;5342;55.676;13.346;2022-11-20T13:29:31;3.23;;;2.93;;
10588;SDS011;5342;55.676;13.346;2022-11-20T13:32:14;2.73;;;2.53;;
10588;SDS011;5342;55.676;13.346;2022-11-20T13:34:57;2.93;;;2.33;;
10588;SDS011;5342;55.676;13.346;2022-11-20T13:40:04;3.40;;;3.10;;
10588;SDS011;5342;55.676;13.346;2022-11-20T13:42:31;3.10;;;2.80;;
10588;SDS011;5342;55.676;13.346;2022-11-20T13:45:02;2.80;;;2.40;;
10588;SDS011;5342;55.676;13.346;2022-11-20T13:47:34;2.80;;;2.60;;
10588;SDS011;5342;55.676;13.346;2022-11-20T13:50:02;2.90;;;2.60;;
10588;SDS011;5342;55.676;13.346;2022-11-20T13:57:35;2.97;;;2.67;;
10588;SDS011;5342;55.676;13.346;2022-11-20T14:02:38;2.70;;;2.50;;
10588;SDS011;5342;55.676;13.346;2022-11-20T14:05:05;3.30;;;3.00;;
10588;SDS011;5342;55.676;13.346;2022-11-20T14:07:34;3.10;;;2.80;;
10588;SDS011;5342;55.676;13.346;2022-11-20T14:10:02;5.43;;;3.20;;
10588;SDS011;5342;55.676;13.346;2022-11-20T14:12:30;4.33;;;3.70;;
10588;SDS011;5342;55.676;13.346;2022-11-20T14:14:57;5.27;;;4.50;;
10588;SDS011;5342;55.676;13.346;2022-11-20T14:19:51;4.00;;;3.53;;
10588;SDS011;5342;55.676;13.346;2022-11-20T14:22:22;3.80;;;3.40;;
10588;SDS011;5342;55.676;13.346;2022-11-20T14:24:59;2.83;;;2.63;;
10588;SDS011;5342;55.676;13.346;2022-11-20T14:27:26;3.27;;;2.97;;
10588;SDS011;5342;55.676;13.346;2022-11-20T14:29:53;3.17;;;2.47;;
10588;SDS011;5342;55.676;13.346;2022-11-20T14:32:21;3.13;;;2.83;;
10588;SDS011;5342;55.676;13.346;2022-11-20T14:34:49;2.83;;;2.53;;
10588;SDS011;5342;55.676;13.346;2022-11-20T14:37:18;5.33;;;4.10;;
10588;SDS011;5342;55.676;13.346;2022-11-20T14:39:52;8.40;;;6.30;;
10588;SDS011;5342;55.676;13.346;2022-11-20T14:44:46;10.27;;;7.00;;
10588;SDS011;5342;55.676;13.346;2022-11-20T14:47:15;11.37;;;7.50;;
10588;SDS011;5342;55.676;13.346;2022-11-20T14:49:43;8.67;;;6.90;;
10588;SDS011;5342;55.676;13.346;2022-11-20T14:52:15;10.60;;;6.83;;
10588;SDS011;5342;55.676;13.346;2022-11-20T14:54:52;10.03;;;6.57;;
10588;SDS011;5342;55.676;13.346;2022-11-20T14:57:29;10.80;;;6.77;;
10588;SDS011;5342;55.676;13.346;2022-11-20T15:02:44;8.67;;;6.17;;
10588;SDS011;5342;55.676;13.346;2022-11-20T15:05:11;5.23;;;4.57;;
10588;SDS011;5342;55.676;13.346;2022-11-20T15:07:39;4.97;;;3.93;;
10588;SDS011;5342;55.676;13.346;2022-11-20T15:10:10;5.40;;;3.60;;
10588;SDS011;5342;55.676;13.346;2022-11-20T15:12:38;4.50;;;3.70;;
10588;SDS011;5342;55.676;13.346;2022-11-20T15:15:06;4.37;;;3.43;;
10588;SDS011;5342;55.676;13.346;2022-11-20T15:17:40;4.80;;;3.60;;
10588;SDS011;5342;55.676;13.346;2022-11-20T15:20:14;5.33;;;3.90;;
10588;SDS011;5342;55.676;13.346;2022-11-20T15:22:41;5.70;;;3.87;;
10588;SDS011;5342;55.676;13.346;2022-11-20T15:25:11;5.07;;;4.57;;
10588;SDS011;5342;55.676;13.346;2022-11-20T15:27:38;7.23;;;5.67;;
10588;SDS011;5342;55.676;13.346;2022-11-20T15:30:14;9.53;;;7.10;;
10588;SDS011;5342;55.676;13.346;2022-11-20T15:32:42;8.80;;;6.70;;
10588;SDS011;5342;55.676;13.346;2022-11-20T15:35:09;7.53;;;6.23;;
10588;SDS011;5342;55.676;13.346;2022-11-20T15:37:36;6.87;;;5.97;;
10588;SDS011;5342;55.676;13.346;2022-11-20T15:40:03;8.93;;;6.60;;
10588;SDS011;5342;55.676;13.346;2022-11-20T15:42:30;5.67;;;5.03;;
10588;SDS011;5342;55.676;13.346;2022-11-20T15:44:57;4.60;;;4.03;;
10588;SDS011;5342;55.676;13.346;2022-11-20T15:47:33;5.00;;;4.20;;
10588;SDS011;5342;55.676;13.346;2022-11-20T15:50:00;5.80;;;5.03;;
10588;SDS011;5342;55.676;13.346;2022-11-20T15:52:26;7.23;;;6.53;;
10588;SDS011;5342;55.676;13.346;2022-11-20T15:54:54;14.03;;;11.60;;
10588;SDS011;5342;55.676;13.346;2022-11-20T15:57:21;29.10;;;25.97;;
10588;SDS011;5342;55.676;13.346;2022-11-20T15:59:47;10.73;;;9.63;;
10588;SDS011;5342;55.676;13.346;2022-11-20T16:02:14;6.07;;;5.47;;
10588;SDS011;5342;55.676;13.346;2022-11-20T16:04:41;5.87;;;4.90;;
10588;SDS011;5342;55.676;13.346;2022-11-20T16:07:08;4.27;;;3.87;;
10588;SDS011;5342;55.676;13.346;2022-11-20T16:09:34;5.20;;;4.22;;
10588;SDS011;5342;55.676;13.346;2022-11-20T16:12:01;4.03;;;3.63;;
10588;SDS011;5342;55.676;13.346;2022-11-20T16:14:27;4.10;;;3.67;;
10588;SDS011;5342;55.676;13.346;2022-11-20T16:17:12;4.65;;;4.15;;
10588;SDS011;5342;55.676;13.346;2022-11-20T16:19:39;4.60;;;4.07;;
10588;SDS011;5342;55.676;13.346;2022-11-20T16:22:06;5.50;;;4.43;;
10588;SDS011;5342;55.676;13.346;2022-11-20T16:24:32;5.67;;;4.30;;
10588;SDS011;5342;55.676;13.346;2022-11-20T16:26:59;5.40;;;4.90;;
10588;SDS011;5342;55.676;13.346;2022-11-20T16:29:26;5.57;;;4.43;;
10588;SDS011;5342;55.676;13.346;2022-11-20T16:31:52;5.10;;;4.60;;
10588;SDS011;5342;55.676;13.346;2022-11-20T16:34:19;4.37;;;3.97;;
10588;SDS011;5342;55.676;13.346;2022-11-20T16:36:45;5.67;;;4.33;;
10588;SDS011;5342;55.676;13.346;2022-11-20T16:39:12;5.43;;;3.97;;